Time;durP1;ratioP1;P1;durP2;ratioP2;P2;SDS_P1;SDS_P2;PMS_P1;PMS_P2;Temp;Humidity;BMP_temperature;BMP_pressure;BME280_temperature;BME280_humidity;BME280_pressure;Samples;Min_cycle;Max_cycle;Signal;HPM_P1;HPM_P2
2022/01/30 00:00:32;;;;;;;3.53;3.13;;;;;;;-4.53;100.00;61537.34;6078716;23;20196;-76
2022/01/30 00:02:59;;;;;;;6.55;4.25;;;;;;;-4.58;100.00;61539.72;6077569;23;20184;-76
2022/01/30 00:05:27;;;;;;;10.25;4.60;;;;;;;-4.70;100.00;61520.53;6078073;23;20197;-75
2022/01/30 00:07:55;;;;;;;8.55;3.83;;;;;;;-4.68;100.00;61522.59;6078652;23;20173;-75
2022/01/30 00:10:22;;;;;;;5.88;4.00;;;;;;;-4.63;100.00;61534.59;6078086;23;20240;-75
2022/01/30 00:12:52;;;;;;;5.20;4.30;;;;;;;-4.71;100.00;61517.03;6077087;23;20247;-75
2022/01/30 00:15:33;;;;;;;3.90;3.58;;;;;;;-4.74;100.00;61513.97;6078138;23;20525;-74
2022/01/30 00:18:10;;;;;;;4.13;3.65;;;;;;;-4.91;100.00;61504.09;6078335;23;20165;-75
2022/01/30 00:20:43;;;;;;;4.65;3.83;;;;;;;-4.90;100.00;61508.09;6077482;23;20216;-75
2022/01/30 00:23:16;;;;;;;6.22;4.25;;;;;;;-4.95;100.00;61500.50;6077772;23;20176;-75
2022/01/30 00:25:48;;;;;;;6.13;3.58;;;;;;;-4.98;100.00;61501.91;6078760;23;20197;-74
2022/01/30 00:28:17;;;;;;;6.20;4.43;;;;;;;-4.87;100.00;61503.69;6077109;23;20196;-75
2022/01/30 00:30:45;;;;;;;7.63;4.43;;;;;;;-4.80;100.00;61512.81;6077450;23;20207;-74
2022/01/30 00:33:11;;;;;;;5.95;3.70;;;;;;;-4.69;100.00;61521.53;6077891;23;20276;-75
2022/01/30 00:35:38;;;;;;;4.57;4.18;;;;;;;-4.64;100.00;61528.63;6077928;23;20456;-75
2022/01/30 00:38:10;;;;;;;4.97;3.33;;;;;;;-4.62;100.00;61530.69;6077604;23;20172;-75
2022/01/30 00:40:38;;;;;;;4.60;3.72;;;;;;;-4.57;100.00;61533.28;6077538;23;20198;-75
2022/01/30 00:43:06;;;;;;;7.78;4.53;;;;;;;-4.72;100.00;61520.97;6078190;23;20225;-74
2022/01/30 00:45:33;;;;;;;6.05;3.58;;;;;;;-4.76;100.00;61517.41;6078770;23;20418;-75
2022/01/30 00:48:00;;;;;;;7.85;3.85;;;;;;;-4.83;100.00;61517.19;6076695;23;20377;-74
2022/01/30 00:50:27;;;;;;;4.72;3.17;;;;;;;-4.73;100.00;61520.47;6078856;23;20199;-75
2022/01/30 00:52:55;;;;;;;3.45;3.15;;;;;;;-4.73;100.00;61517.97;6078797;23;20521;-74
2022/01/30 00:55:22;;;;;;;4.22;3.47;;;;;;;-4.82;100.00;61513.78;6078624;23;20197;-75
2022/01/30 00:57:50;;;;;;;5.97;4.63;;;;;;;-4.75;100.00;61523.41;6078088;23;20185;-74
2022/01/30 01:00:18;;;;;;;7.60;5.35;;;;;;;-4.66;100.00;61524.09;6078502;23;20221;-74
2022/01/30 01:02:45;;;;;;;10.30;9.02;;;;;;;-4.56;100.00;61539.78;6078588;23;20249;-75
2022/01/30 01:05:12;;;;;;;11.57;6.72;;;;;;;-4.54;100.00;61543.78;6076756;23;20196;-75
2022/01/30 01:07:43;;;;;;;7.10;4.75;;;;;;;-4.47;100.00;61550.94;6078054;23;20173;-74
2022/01/30 01:10:17;;;;;;;6.90;4.85;;;;;;;-4.46;100.00;61551.94;6077437;23;20243;-74
2022/01/30 01:13:07;;;;;;;4.30;3.90;;;;;;;-4.48;100.00;61539.97;6076506;23;20169;-75
2022/01/30 01:23:52;;;;;;;7.95;3.40;;;;;;;-4.66;100.00;61524.63;6077723;23;20519;-75
2022/01/30 01:26:20;;;;;;;4.57;3.83;;;;;;;-4.76;100.00;61514.91;6078067;23;20211;-75
2022/01/30 01:28:48;;;;;;;4.60;4.20;;;;;;;-4.69;100.00;61531.47;6076873;23;20419;-75
2022/01/30 01:31:16;;;;;;;4.78;3.53;;;;;;;-4.71;100.00;61520.03;6077482;23;20428;-75
2022/01/30 01:33:58;;;;;;;4.68;3.60;;;;;;;-4.76;100.00;61517.41;6077380;23;20204;-74
2022/01/30 01:36:25;;;;;;;8.60;3.85;;;;;;;-4.81;100.00;61509.81;6077802;23;20217;-74
2022/01/30 01:38:52;;;;;;;8.73;3.45;;;;;;;-4.80;100.00;61512.81;6076822;23;20200;-74
2022/01/30 01:41:21;;;;;;;4.82;3.17;;;;;;;-4.85;100.00;61507.72;6076889;23;20580;-75
2022/01/30 01:43:49;;;;;;;4.93;3.33;;;;;;;-4.81;100.00;61512.31;6077833;23;20184;-76
2022/01/30 01:46:21;;;;;;;5.28;3.28;;;;;;;-4.82;100.00;61515.75;6077639;23;20192;-74
2022/01/30 01:48:51;;;;;;;3.83;3.47;;;;;;;-5.13;100.00;61482.16;6077331;23;20169;-73
2022/01/30 01:51:22;;;;;;;6.32;3.63;;;;;;;-5.19;100.00;61468.09;6077860;23;20259;-74
2022/01/30 01:53:51;;;;;;;4.53;3.58;;;;;;;-5.14;100.00;61478.16;6077721;23;20361;-74
2022/01/30 01:56:19;;;;;;;4.20;3.50;;;;;;;-5.10;100.00;61487.69;6076655;23;20196;-74
2022/01/30 01:58:46;;;;;;;4.43;4.03;;;;;;;-5.11;100.00;61481.22;6077551;23;20236;-75
2022/01/30 02:01:13;;;;;;;4.57;3.22;;;;;;;-5.13;100.00;61479.69;6077901;23;20236;-74
2022/01/30 02:03:43;;;;;;;4.57;3.92;;;;;;;-5.08;100.00;61487.25;6077415;23;20165;-75
2022/01/30 02:06:16;;;;;;;5.32;4.03;;;;;;;-5.11;100.00;61481.72;6077510;23;20193;-74
2022/01/30 02:08:46;;;;;;;4.40;3.47;;;;;;;-5.44;100.00;61447.56;6077403;23;20237;-74
2022/01/30 02:11:17;;;;;;;6.38;3.97;;;;;;;-5.34;100.00;61457.75;6077488;23;20189;-75
2022/01/30 02:14:03;;;;;;;5.32;2.95;;;;;;;-5.33;100.00;61459.28;6077711;23;20576;-73
2022/01/30 02:24:59;;;;;;;7.65;4.13;;;;;;;-5.47;100.00;61447.50;6077559;23;20228;-74
2022/01/30 02:27:32;;;;;;;4.68;3.63;;;;;;;-5.41;100.00;61456.09;6076780;23;20176;-75
2022/01/30 02:29:59;;;;;;;3.40;3.00;;;;;;;-5.33;100.00;61464.25;6077977;23;20260;-75
2022/01/30 02:32:27;;;;;;;4.95;3.58;;;;;;;-5.29;100.00;61457.91;6077013;23;20375;-74
2022/01/30 02:34:54;;;;;;;9.15;4.35;;;;;;;-5.30;100.00;61462.34;6076858;23;20224;-75
2022/01/30 02:37:21;;;;;;;6.88;4.28;;;;;;;-5.35;100.00;61456.75;6077831;23;20165;-75
2022/01/30 02:39:50;;;;;;;5.20;4.80;;;;;;;-5.35;100.00;61459.72;6077478;23;20189;-74
2022/01/30 02:42:20;;;;;;;7.28;4.50;;;;;;;-5.36;100.00;61455.72;6078900;23;20180;-75
2022/01/30 02:44:52;;;;;;;5.35;3.88;;;;;;;-5.34;100.00;61457.75;6079054;23;20568;-74
2022/01/30 02:47:39;;;;;;;3.92;3.35;;;;;;;-5.32;100.00;61464.75;6079415;23;20585;-74
2022/01/30 02:50:15;;;;;;;4.85;3.40;;;;;;;-5.35;100.00;61457.25;6079229;23;20237;-74
2022/01/30 02:52:44;;;;;;;4.93;3.88;;;;;;;-5.33;100.00;61466.22;6079625;23;20169;-74
2022/01/30 02:55:14;;;;;;;4.90;2.80;;;;;;;-5.34;100.00;61457.75;6077708;23;20271;-75
2022/01/30 02:57:41;;;;;;;4.35;3.15;;;;;;;-5.42;100.00;61445.16;6079547;23;20395;-74
2022/01/30 03:00:10;;;;;;;6.30;3.90;;;;;;;-5.46;100.00;61446.03;6079139;23;20197;-75
2022/01/30 03:02:37;;;;;;;6.95;3.72;;;;;;;-5.36;100.00;61458.72;6078431;23;20209;-73
2022/01/30 03:05:05;;;;;;;6.78;4.30;;;;;;;-5.36;100.00;61456.22;6079261;23;20333;-74
2022/01/30 03:07:31;;;;;;;4.70;4.00;;;;;;;-5.27;100.00;61464.91;6079432;23;20184;-74
2022/01/30 03:09:58;;;;;;;7.20;3.92;;;;;;;-5.54;100.00;61434.91;6077514;23;20197;-74
2022/01/30 03:12:26;;;;;;;8.73;4.35;;;;;;;-5.53;100.00;61440.88;6078291;23;20208;-73
2022/01/30 03:14:53;;;;;;;3.97;3.50;;;;;;;-5.51;100.00;61440.44;6079347;23;20564;-75
2022/01/30 03:17:20;;;;;;;4.53;4.10;;;;;;;-5.57;100.00;61434.34;6078238;23;20244;-75
2022/01/30 03:19:47;;;;;;;7.45;3.85;;;;;;;-5.58;100.00;61435.78;6079435;23;20513;-74
2022/01/30 03:22:14;;;;;;;7.32;3.97;;;;;;;-5.60;100.00;61426.31;6078789;23;20176;-75
2022/01/30 03:24:41;;;;;;;3.33;3.08;;;;;;;-5.52;100.00;61441.91;6078272;23;20211;-74
2022/01/30 03:27:11;;;;;;;7.05;3.00;;;;;;;-5.52;100.00;61439.91;6077909;23;20224;-74
2022/01/30 03:29:40;;;;;;;3.03;2.42;;;;;;;-5.54;100.00;61437.88;6078398;23;20375;-75
2022/01/30 03:32:08;;;;;;;2.60;2.40;;;;;;;-5.54;100.00;61439.88;6078323;23;20173;-75
2022/01/30 03:34:35;;;;;;;6.15;4.05;;;;;;;-5.51;100.00;61445.91;6078924;23;20269;-74
2022/01/30 03:37:02;;;;;;;4.10;3.47;;;;;;;-5.49;100.00;61444.97;6078428;23;20180;-73
2022/01/30 03:39:29;;;;;;;5.88;3.80;;;;;;;-5.48;100.00;61438.53;6078061;23;20221;-74
2022/01/30 03:41:55;;;;;;;6.78;4.28;;;;;;;-5.51;100.00;61438.47;6078072;23;20490;-74
2022/01/30 03:44:22;;;;;;;6.25;3.95;;;;;;;-5.53;100.00;61433.44;6078621;23;20212;-74
2022/01/30 03:46:50;;;;;;;8.18;4.78;;;;;;;-5.42;100.00;61447.13;6078837;23;20208;-74
2022/01/30 03:49:17;;;;;;;6.88;4.68;;;;;;;-5.40;100.00;61456.63;6078104;23;20200;-73
2022/01/30 03:51:44;;;;;;;8.43;5.00;;;;;;;-5.41;100.00;61455.59;6078364;23;20473;-74
2022/01/30 03:54:10;;;;;;;7.05;4.88;;;;;;;-5.38;100.00;61453.69;6077815;23;20197;-74
2022/01/30 03:56:37;;;;;;;5.03;4.53;;;;;;;-5.35;100.00;61457.25;6077510;23;20470;-75
2022/01/30 03:59:04;;;;;;;4.93;3.80;;;;;;;-5.48;100.00;61436.06;6077889;23;20173;-74
2022/01/30 04:01:34;;;;;;;7.65;3.35;;;;;;;-5.39;100.00;61455.16;6078214;23;20212;-73
2022/01/30 04:04:02;;;;;;;6.43;3.05;;;;;;;-5.34;100.00;61457.75;6078167;23;20461;-75
2022/01/30 04:06:30;;;;;;;3.17;2.63;;;;;;;-5.28;100.00;61461.91;6076888;23;20493;-73
2022/01/30 04:08:57;;;;;;;4.40;2.85;;;;;;;-5.39;100.00;61453.19;6078367;23;20222;-74
2022/01/30 04:11:24;;;;;;;4.18;3.70;;;;;;;-5.35;100.00;61452.28;6079092;23;20172;-73
2022/01/30 04:13:51;;;;;;;7.18;3.33;;;;;;;-5.38;100.00;61456.69;6082463;23;20208;-74
2022/01/30 04:16:18;;;;;;;3.72;2.92;;;;;;;-5.58;100.00;61433.81;6082833;23;20192;-73
2022/01/30 04:18:45;;;;;;;3.85;3.47;;;;;;;-5.70;100.00;61421.59;6079695;23;20173;-73
2022/01/30 04:21:14;;;;;;;5.85;3.80;;;;;;;-5.82;100.00;61408.88;6078231;23;20193;-74
2022/01/30 04:23:41;;;;;;;6.65;3.88;;;;;;;-5.88;100.00;61402.78;6078957;23;20232;-75
2022/01/30 04:26:08;;;;;;;3.92;3.53;;;;;;;-5.85;100.00;61410.78;6077941;23;20580;-75
2022/01/30 04:28:35;;;;;;;5.72;3.45;;;;;;;-5.86;100.00;61407.25;6078210;23;20173;-73
2022/01/30 04:31:02;;;;;;;4.20;3.75;;;;;;;-5.83;100.00;61410.34;6078315;23;20251;-74
2022/01/30 04:33:30;;;;;;;5.38;3.00;;;;;;;-5.78;100.00;61410.47;6077434;23;20240;-75
2022/01/30 04:36:01;;;;;;;4.63;3.92;;;;;;;-5.72;100.00;61411.59;6077964;23;20220;-74
2022/01/30 04:38:37;;;;;;;3.58;2.85;;;;;;;-5.83;100.00;61413.31;6078903;23;20401;-74
2022/01/30 04:52:48;;;;;;;4.22;3.83;;;;;;;-5.26;100.00;61468.91;6040560;23;20262;-74
2022/01/30 04:58:04;;;;;;;13.55;7.07;;;;;;;-5.30;100.00;61469.28;6015435;23;20220;-73
2022/01/30 05:00:54;;;;;;;9.55;5.85;;;;;;;-5.33;100.00;61456.31;6077818;23;20580;-73
2022/01/30 05:03:36;;;;;;;6.93;4.75;;;;;;;-5.43;100.00;61449.09;6078512;23;20173;-74
2022/01/30 05:06:06;;;;;;;10.93;5.97;;;;;;;-5.59;100.00;61437.75;6077208;23;20255;-74
2022/01/30 05:08:34;;;;;;;14.27;6.93;;;;;;;-5.57;100.00;61429.38;6078079;23;20173;-73
2022/01/30 05:11:06;;;;;;;9.18;5.72;;;;;;;-5.69;100.00;61417.66;6077198;23;20252;-73
2022/01/30 05:13:35;;;;;;;14.05;7.43;;;;;;;-5.59;100.00;61437.75;6077805;23;20165;-73
2022/01/30 05:16:03;;;;;;;15.93;7.28;;;;;;;-5.53;100.00;61433.94;6076917;23;20572;-73
2022/01/30 05:18:31;;;;;;;19.00;10.02;;;;;;;-5.46;100.00;61440.56;6077249;23;20198;-73
2022/01/30 05:20:58;;;;;;;20.63;9.85;;;;;;;-5.61;100.00;61427.78;6077464;23;20237;-73
2022/01/30 05:23:26;;;;;;;11.68;5.90;;;;;;;-5.51;100.00;61445.91;6077710;23;20179;-73
2022/01/30 05:25:54;;;;;;;9.95;5.75;;;;;;;-5.53;100.00;61443.34;6076779;23;20263;-73
2022/01/30 05:28:24;;;;;;;10.25;6.28;;;;;;;-5.45;100.00;61447.06;6075885;23;20351;-74
2022/01/30 05:30:51;;;;;;;9.23;5.47;;;;;;;-5.55;100.00;61438.84;6078371;23;20200;-74
2022/01/30 05:33:19;;;;;;;7.65;4.25;;;;;;;-5.36;100.00;61460.69;6077736;23;20177;-74
2022/01/30 05:35:47;;;;;;;11.07;4.22;;;;;;;-5.18;100.00;61479.56;6076902;23;20537;-74
2022/01/30 05:38:14;;;;;;;8.02;5.03;;;;;;;-5.09;100.00;61485.75;6076888;23;20372;-74
2022/01/30 05:40:42;;;;;;;7.45;5.53;;;;;;;-5.32;100.00;61457.84;6077386;23;20216;-74
2022/01/30 05:43:09;;;;;;;14.68;6.90;;;;;;;-5.23;100.00;61467.00;6076636;23;20228;-74
2022/01/30 05:45:40;;;;;;;8.70;4.68;;;;;;;-5.00;100.00;61490.44;6077129;23;20192;-73
2022/01/30 05:48:14;;;;;;;14.90;5.60;;;;;;;-4.77;100.00;61520.84;6077275;23;20173;-73
2022/01/30 05:50:41;;;;;;;10.18;5.35;;;;;;;-4.56;100.00;61544.75;6077488;23;20200;-74
2022/01/30 05:53:08;;;;;;;8.43;5.72;;;;;;;-4.38;100.00;61550.69;6076951;23;20176;-73
2022/01/30 05:55:35;;;;;;;11.00;6.47;;;;;;;-4.24;100.00;61569.44;6076902;23;20212;-73
2022/01/30 05:58:02;;;;;;;10.10;5.93;;;;;;;-4.39;100.00;61559.59;6077994;23;20177;-73
2022/01/30 06:00:29;;;;;;;15.10;7.38;;;;;;;-4.38;100.00;61560.63;6077431;23;20196;-73
2022/01/30 06:02:57;;;;;;;12.13;6.35;;;;;;;-4.04;100.00;61584.88;6077101;23;20175;-74
2022/01/30 06:05:25;;;;;;;9.43;6.60;;;;;;;-3.95;100.00;61594.06;6077484;23;20192;-74
2022/01/30 06:07:53;;;;;;;26.55;13.43;;;;;;;-3.77;100.00;61615.44;6076950;23;20172;-74
2022/01/30 06:10:22;;;;;;;16.02;8.07;;;;;;;-3.67;99.73;61625.13;6076561;23;20195;-74
2022/01/30 06:12:49;;;;;;;8.27;6.18;;;;;;;-3.68;98.61;61619.66;6077349;23;20560;-72
2022/01/30 06:15:16;;;;;;;8.65;6.00;;;;;;;-3.75;98.73;61614.47;6079212;23;20251;-73
2022/01/30 06:17:44;;;;;;;18.65;6.60;;;;;;;-3.49;98.38;61643.50;6079817;23;20173;-73
2022/01/30 06:20:13;;;;;;;13.60;6.60;;;;;;;-3.48;98.18;61644.00;6078763;23;20193;-74
2022/01/30 06:22:43;;;;;;;11.60;6.47;;;;;;;-3.46;98.21;61643.56;6077912;23;20173;-73
2022/01/30 06:25:10;;;;;;;13.95;7.25;;;;;;;-3.29;98.23;61665.91;6079372;23;20197;-75
2022/01/30 06:27:37;;;;;;;11.90;7.53;;;;;;;-3.26;97.65;61667.00;6078616;23;20183;-75
2022/01/30 06:30:05;;;;;;;10.77;6.45;;;;;;;-3.15;98.04;61675.75;6077855;23;20201;-73
2022/01/30 06:32:32;;;;;;;12.13;6.78;;;;;;;-3.09;97.60;61686.84;6079585;23;20177;-74
2022/01/30 06:34:59;;;;;;;21.38;8.95;;;;;;;-3.18;96.72;61672.16;6079442;23;20212;-75
2022/01/30 06:37:28;;;;;;;13.25;7.68;;;;;;;-3.02;96.63;61691.50;6080100;23;20177;-75
2022/01/30 06:39:54;;;;;;;18.17;8.30;;;;;;;-2.99;95.87;61691.56;6078209;23;20248;-75
2022/01/30 06:42:22;;;;;;;16.52;7.57;;;;;;;-2.84;94.43;61711.88;6082633;23;20192;-75
2022/01/30 06:44:50;;;;;;;14.88;7.60;;;;;;;-3.25;93.31;61670.00;6078930;23;20212;-74
2022/01/30 06:47:17;;;;;;;16.20;9.07;;;;;;;-3.17;94.77;61678.69;6076774;23;20177;-75
2022/01/30 06:49:43;;;;;;;19.40;8.45;;;;;;;-3.29;95.26;61663.41;6077465;23;20564;-75
2022/01/30 06:52:11;;;;;;;17.08;8.48;;;;;;;-3.15;95.76;61682.69;6078388;23;20173;-75
2022/01/30 06:54:40;;;;;;;16.92;9.15;;;;;;;-3.28;95.88;61669.94;6077987;23;20390;-74
2022/01/30 06:57:07;;;;;;;22.35;9.70;;;;;;;-3.29;96.09;61666.41;6077597;23;20187;-74
2022/01/30 06:59:34;;;;;;;17.67;8.88;;;;;;;-3.33;97.21;61659.84;6078241;23;20192;-74
2022/01/30 07:02:02;;;;;;;19.60;8.55;;;;;;;-3.07;97.20;61686.41;6077519;23;20407;-75
2022/01/30 07:04:28;;;;;;;26.23;9.50;;;;;;;-2.95;96.28;61698.16;6077616;23;20387;-75
2022/01/30 07:06:55;;;;;;;22.75;9.68;;;;;;;-2.85;95.72;61706.41;6077965;23;20177;-74
2022/01/30 07:09:22;;;;;;;34.50;11.45;;;;;;;-2.60;95.41;61736.91;6078897;23;20197;-75
2022/01/30 07:11:51;;;;;;;19.95;9.48;;;;;;;-2.48;94.79;61751.69;6078473;23;20183;-75
2022/01/30 07:14:17;;;;;;;26.15;11.20;;;;;;;-2.29;94.89;61765.59;6078973;23;20497;-74
2022/01/30 07:16:46;;;;;;;19.45;9.65;;;;;;;-1.94;93.58;61800.88;6078545;23;20205;-75
2022/01/30 07:19:13;;;;;;;14.38;8.73;;;;;;;-1.78;92.66;61815.28;6078537;23;20221;-75
2022/01/30 07:21:40;;;;;;;19.25;10.43;;;;;;;-1.62;91.81;61831.63;6079367;23;20232;-75
2022/01/30 07:24:07;;;;;;;15.52;10.07;;;;;;;-1.67;91.46;61828.50;6078731;23;20176;-75
2022/01/30 07:26:34;;;;;;;16.40;9.48;;;;;;;-1.46;91.24;61853.00;6077685;23;20177;-76
2022/01/30 07:29:03;;;;;;;13.85;8.13;;;;;;;-1.54;90.44;61847.31;6077639;23;20196;-75
2022/01/30 07:31:30;;;;;;;19.83;9.50;;;;;;;-1.76;91.55;61822.28;6079329;23;20177;-75
2022/01/30 07:33:57;;;;;;;14.32;8.50;;;;;;;-1.72;91.60;61821.41;6077628;23;20172;-74
2022/01/30 07:36:24;;;;;;;19.02;9.27;;;;;;;-1.27;91.51;61869.94;6078713;23;20276;-74
2022/01/30 07:38:51;;;;;;;17.60;8.35;;;;;;;-0.95;90.13;61904.16;6077299;23;20213;-74
2022/01/30 07:41:18;;;;;;;13.82;9.02;;;;;;;-0.82;88.21;61913.00;6077910;23;20252;-75
2022/01/30 07:43:45;;;;;;;19.65;9.70;;;;;;;-0.67;86.64;61928.34;6078273;23;20180;-75
2022/01/30 07:46:13;;;;;;;17.30;9.65;;;;;;;-0.60;85.81;61943.03;6078775;23;20200;-75
2022/01/30 07:48:40;;;;;;;20.85;10.18;;;;;;;-0.40;84.75;61958.50;6077317;23;20185;-75
2022/01/30 07:51:07;;;;;;;17.52;10.10;;;;;;;-0.24;83.12;61972.38;6077515;23;20332;-75
2022/01/30 07:53:34;;;;;;;15.18;8.30;;;;;;;-0.26;82.03;61969.84;6077008;23;20415;-75
2022/01/30 07:56:04;;;;;;;21.60;9.23;;;;;;;-0.55;81.49;61945.63;6077912;23;20220;-75
2022/01/30 07:58:31;;;;;;;17.08;9.45;;;;;;;-0.72;83.45;61928.22;6078135;23;20232;-77
2022/01/30 08:00:58;;;;;;;20.00;8.77;;;;;;;-1.14;84.41;61884.72;6077979;23;20252;-75
2022/01/30 08:03:26;;;;;;;16.95;8.80;;;;;;;-1.20;86.46;61876.59;6078250;23;20236;-75
2022/01/30 08:05:53;;;;;;;21.83;9.32;;;;;;;-1.05;86.79;61886.44;6077134;23;20193;-77
2022/01/30 08:08:20;;;;;;;16.02;9.55;;;;;;;-0.69;86.45;61925.81;6077893;23;20177;-75
2022/01/30 08:10:47;;;;;;;20.58;9.27;;;;;;;-0.79;84.56;61916.06;6077629;23;20200;-74
2022/01/30 08:13:16;;;;;;;20.35;9.77;;;;;;;-0.59;84.57;61936.03;6078307;23;20180;-76
2022/01/30 08:15:43;;;;;;;17.17;9.60;;;;;;;-0.42;83.25;61951.47;6077869;23;20208;-77
2022/01/30 08:18:09;;;;;;;14.65;8.50;;;;;;;-0.46;82.81;61952.34;6078215;23;20268;-78
2022/01/30 08:20:38;;;;;;;13.23;8.15;;;;;;;-0.35;82.62;61963.13;6077867;23;20256;-76
2022/01/30 08:23:11;;;;;;;11.93;6.85;;;;;;;-0.63;82.23;61936.94;6077922;23;20501;-77
2022/01/30 08:25:39;;;;;;;16.00;9.43;;;;;;;-0.41;83.20;61956.97;6077080;23;20224;-77
2022/01/30 08:28:06;;;;;;;14.20;8.23;;;;;;;-0.28;80.77;61973.31;6077503;23;20180;-76
2022/01/30 08:30:33;;;;;;;16.00;8.13;;;;;;;-0.06;78.27;61995.31;6079366;23;20205;-76
2022/01/30 08:33:00;;;;;;;12.13;7.85;;;;;;;0.17;77.50;62018.91;6078812;23;20212;-76
2022/01/30 08:35:27;;;;;;;14.70;7.68;;;;;;;0.06;74.81;62004.59;6078068;23;20275;-76
2022/01/30 08:37:56;;;;;;;12.52;7.30;;;;;;;0.02;75.23;62003.03;6076732;23;20228;-74
2022/01/30 08:40:24;;;;;;;15.48;8.57;;;;;;;0.00;74.74;61996.47;6077733;23;20241;-75
2022/01/30 08:42:51;;;;;;;13.27;7.82;;;;;;;-0.01;76.44;62000.44;6077299;23;20344;-75
2022/01/30 08:45:19;;;;;;;17.33;8.05;;;;;;;0.03;76.96;62007.06;6077103;23;20245;-75
2022/01/30 08:47:48;;;;;;;13.10;7.70;;;;;;;0.08;76.55;62009.16;6076755;23;20209;-75
2022/01/30 08:50:16;;;;;;;15.30;7.40;;;;;;;0.19;76.19;62020.44;6076977;23;20572;-75
2022/01/30 08:52:43;;;;;;;12.10;7.90;;;;;;;0.15;75.83;62016.84;6077531;23;20369;-75
2022/01/30 08:55:13;;;;;;;14.10;7.75;;;;;;;0.30;76.55;62029.72;6075580;23;20276;-75
2022/01/30 08:57:40;;;;;;;17.83;8.63;;;;;;;0.41;76.66;62036.00;6076438;23;20214;-74
2022/01/30 09:00:09;;;;;;;16.92;8.57;;;;;;;0.41;76.08;62041.00;6075731;23;20192;-75
2022/01/30 09:02:38;;;;;;;15.75;9.40;;;;;;;0.49;75.64;62051.69;6077675;23;20286;-76
2022/01/30 09:05:06;;;;;;;24.33;10.25;;;;;;;0.49;73.69;62049.19;6077653;23;20196;-75
2022/01/30 09:07:33;;;;;;;19.52;10.30;;;;;;;0.74;72.84;62076.81;6077394;23;20177;-76
2022/01/30 09:10:00;;;;;;;15.95;8.95;;;;;;;0.91;71.09;62089.75;6077793;23;20217;-76
2022/01/30 09:12:28;;;;;;;16.90;9.52;;;;;;;1.15;71.23;62121.38;6077099;23;20173;-75
2022/01/30 09:14:55;;;;;;;15.98;9.48;;;;;;;1.38;70.38;62137.44;6075685;23;20192;-75
2022/01/30 09:17:24;;;;;;;14.57;9.07;;;;;;;1.73;67.28;62177.88;6077230;23;20192;-75
2022/01/30 09:19:51;;;;;;;12.20;8.30;;;;;;;1.80;66.21;62185.06;6077678;23;20221;-75
2022/01/30 09:22:19;;;;;;;13.75;7.68;;;;;;;1.87;65.59;62189.75;6075762;23;20431;-74
2022/01/30 09:24:47;;;;;;;15.73;8.27;;;;;;;1.54;66.39;62153.34;6077610;23;20284;-75
2022/01/30 09:27:15;;;;;;;15.07;8.60;;;;;;;1.47;66.61;62149.19;6076964;23;20169;-75
2022/01/30 09:29:44;;;;;;;22.27;9.88;;;;;;;1.67;67.19;62172.25;6076234;23;20200;-76
2022/01/30 09:32:11;;;;;;;13.95;9.07;;;;;;;1.41;68.05;62145.56;6076077;23;20169;-76
2022/01/30 09:34:39;;;;;;;15.50;7.63;;;;;;;1.31;68.76;62132.78;6076944;23;20236;-76
2022/01/30 09:37:06;;;;;;;17.10;8.38;;;;;;;1.50;67.73;62154.28;6076617;23;20219;-76
2022/01/30 09:39:33;;;;;;;17.15;7.65;;;;;;;1.56;66.23;62160.44;6076946;23;20216;-76
2022/01/30 09:42:00;;;;;;;17.13;8.25;;;;;;;1.57;65.13;62161.47;6075918;23;20396;-75
2022/01/30 09:44:27;;;;;;;14.68;7.25;;;;;;;1.11;65.20;62112.25;6076240;23;20240;-74
2022/01/30 09:46:55;;;;;;;18.35;9.77;;;;;;;1.26;67.85;62125.13;6077040;23;20236;-75
2022/01/30 09:49:24;;;;;;;21.65;9.85;;;;;;;1.27;65.90;62131.19;6078978;23;20259;-74
2022/01/30 09:51:53;;;;;;;17.60;7.55;;;;;;;1.25;65.89;62129.13;6083308;23;20183;-75
2022/01/30 09:54:21;;;;;;;12.30;7.68;;;;;;;1.60;65.90;62167.56;6080624;23;20200;-75
2022/01/30 09:56:48;;;;;;;13.75;7.88;;;;;;;1.91;64.07;62196.38;6080623;23;20267;-73
2022/01/30 09:59:15;;;;;;;14.18;7.47;;;;;;;2.06;62.98;62212.28;6079586;23;20180;-75
2022/01/30 10:01:42;;;;;;;11.98;7.00;;;;;;;2.26;60.71;62229.78;6080525;23;20179;-75
2022/01/30 10:04:10;;;;;;;11.50;7.18;;;;;;;1.99;58.69;62202.06;6080263;23;20477;-75
2022/01/30 10:07:02;;;;;;;10.93;7.75;;;;;;;1.99;59.81;62205.09;6080465;23;20477;-74
2022/01/30 10:09:33;;;;;;;14.10;6.95;;;;;;;2.08;59.63;62213.81;6072482;23;20192;-75
2022/01/30 10:12:13;;;;;;;15.00;7.93;;;;;;;2.29;59.17;62233.41;6080502;23;20168;-75
2022/01/30 10:15:00;;;;;;;11.23;7.82;;;;;;;2.39;58.22;62248.16;6080618;23;20244;-76
2022/01/30 10:17:35;;;;;;;14.15;7.50;;;;;;;2.66;57.90;62273.38;6079956;23;20193;-77
2022/01/30 10:20:10;;;;;;;15.70;7.40;;;;;;;2.84;58.31;62291.38;6079879;23;20206;-75
2022/01/30 10:22:48;;;;;;;12.18;7.60;;;;;;;3.08;57.73;62314.03;6080990;23;20176;-75
2022/01/30 10:25:20;;;;;;;12.48;6.55;;;;;;;3.24;56.50;62332.47;6080977;23;20363;-75
2022/01/30 10:27:47;;;;;;;10.30;7.05;;;;;;;3.01;55.29;62308.84;6080556;23;20165;-74
2022/01/30 10:30:22;;;;;;;11.18;6.22;;;;;;;3.13;54.93;62319.16;6080056;23;20212;-75
2022/01/30 10:32:56;;;;;;;10.68;7.57;;;;;;;2.80;54.55;62285.25;6080740;23;20216;-76
2022/01/30 10:35:26;;;;;;;13.38;6.80;;;;;;;2.96;55.22;62304.22;6079014;23;20196;-75
2022/01/30 10:37:53;;;;;;;11.23;7.13;;;;;;;3.21;55.38;62331.91;6080044;23;20179;-75
2022/01/30 10:40:28;;;;;;;12.10;8.05;;;;;;;3.31;55.56;62337.16;6079868;23;20200;-76
2022/01/30 10:42:55;;;;;;;15.70;7.78;;;;;;;3.54;55.06;62363.84;6080638;23;20346;-75
2022/01/30 10:45:30;;;;;;;15.00;7.22;;;;;;;3.73;53.75;62380.34;6081580;23;20192;-75
2022/01/30 10:48:11;;;;;;;9.10;6.72;;;;;;;3.80;53.63;62387.03;6083362;23;20176;-74
2022/01/30 10:50:43;;;;;;;11.93;7.40;;;;;;;3.93;52.08;62400.91;6083525;23;20200;-79
2022/01/30 10:53:18;;;;;;;11.85;6.72;;;;;;;3.92;52.53;62399.38;6083812;23;20192;-78
2022/01/30 10:55:48;;;;;;;11.50;6.60;;;;;;;3.75;52.60;62381.88;6083937;23;20543;-79
2022/01/30 10:58:18;;;;;;;14.88;7.47;;;;;;;3.58;52.93;62369.44;6085101;23;20232;-80
2022/01/30 11:00:47;;;;;;;13.70;8.38;;;;;;;3.87;52.96;62396.75;6091406;23;20248;-79
2022/01/30 11:03:37;;;;;;;13.20;6.22;;;;;;;4.01;52.01;62411.16;6084714;23;20196;-80
2022/01/30 11:06:10;;;;;;;12.75;6.43;;;;;;;4.01;52.05;62406.63;6084072;23;20264;-78
2022/01/30 11:08:39;;;;;;;9.65;7.18;;;;;;;4.13;51.43;62421.50;6083854;23;20403;-78
2022/01/30 11:11:13;;;;;;;9.32;6.90;;;;;;;4.35;51.95;62446.13;6081113;23;20217;-79
2022/01/30 11:14:02;;;;;;;11.85;6.80;;;;;;;4.50;51.34;62462.06;6080448;23;20216;-79
2022/01/30 11:19:16;;;;;;;17.02;7.32;;;;;;;4.90;51.82;62502.25;6081744;23;20203;-79
2022/01/30 11:21:48;;;;;;;11.57;7.93;;;;;;;5.02;50.94;62509.53;6082272;23;20177;-79
2022/01/30 11:24:16;;;;;;;12.73;8.02;;;;;;;4.66;50.98;62478.03;6081347;23;20176;-79
2022/01/30 11:26:44;;;;;;;11.15;7.57;;;;;;;4.92;51.32;62501.78;6082181;23;20311;-80
2022/01/30 11:29:12;;;;;;;15.13;8.07;;;;;;;5.12;50.69;62524.88;6079679;23;20220;-77
2022/01/30 11:31:39;;;;;;;11.93;7.47;;;;;;;5.17;50.28;62527.50;6081057;23;20596;-76
2022/01/30 11:34:07;;;;;;;16.98;9.50;;;;;;;5.30;50.77;62540.88;6079657;23;20416;-76
2022/01/30 11:36:38;;;;;;;15.57;7.85;;;;;;;5.52;50.46;62568.63;6079768;23;20215;-76
2022/01/30 11:39:07;;;;;;;10.85;7.93;;;;;;;5.62;49.87;62576.91;6080227;23;20203;-77
2022/01/30 11:41:34;;;;;;;16.92;8.60;;;;;;;5.72;49.93;62584.69;6080568;23;20216;-77
2022/01/30 11:44:27;;;;;;;11.98;7.47;;;;;;;5.69;49.10;62578.56;6079006;23;20187;-77
2022/01/30 11:47:17;;;;;;;17.38;7.80;;;;;;;5.89;49.75;62601.69;6080811;23;20180;-77
2022/01/30 11:49:50;;;;;;;18.42;7.72;;;;;;;6.12;47.97;62630.47;6079639;23;20387;-77
2022/01/30 11:52:18;;;;;;;15.57;7.40;;;;;;;6.02;48.21;62620.16;6080295;23;20271;-77
2022/01/30 11:54:49;;;;;;;7.80;6.68;;;;;;;5.84;48.11;62596.56;6082191;23;20196;-78
2022/01/30 11:57:46;;;;;;;17.65;7.40;;;;;;;5.80;49.00;62597.97;6080226;23;20205;-76
2022/01/30 12:00:36;;;;;;;17.92;7.90;;;;;;;6.31;48.65;62647.00;6082118;23;20233;-77
2022/01/30 12:03:35;;;;;;;10.93;7.93;;;;;;;6.67;47.93;62687.19;6081894;23;20525;-76
2022/01/30 12:06:30;;;;;;;11.80;7.30;;;;;;;6.65;47.42;62682.59;6015861;23;20561;-77
2022/01/30 12:09:00;;;;;;;23.52;7.85;;;;;;;6.54;47.65;62668.69;6079695;23;20220;-76
2022/01/30 12:12:07;;;;;;;18.20;8.15;;;;;;;6.76;47.23;62693.41;6078321;23;20180;-75